AWQ122 WMKP-VTSP
Flight info
| Callsign | AWQ122 |
|---|---|
| Flight time | 0h 42m |
| Altitude | 28000 |
| Route | GOGOM1B GOGOM Y351 DUBAX R325 URGAD URGAD1D |
| Aircraft | A20N/M-SDE2E3FGHIRWXY/LB1 |
Departure
| Time | 2026-04-25 08:30 |
|---|---|
| Airport | Penang International Airport (WMKP) |
Arrival
| Time | 2026-04-25 09:12 |
|---|---|
| Airport | Phuket International Airport (VTSP) |
| Time | Latitude | Longitude | Altitude | Speed | Heading |
|---|---|---|---|---|---|
| 2026-04-25 08:00 | 5.29133 | 100.26566 | 28 ft | 0 kts | 312° |
| 2026-04-25 08:21 | 5.29124 | 100.26576 | 28 ft | 2 kts | 311° |
| 2026-04-25 08:21 | 5.29114 | 100.26587 | 27 ft | 2 kts | 312° |
| 2026-04-25 08:22 | 5.29105 | 100.26598 | 27 ft | 2 kts | 312° |
| 2026-04-25 08:22 | 5.29094 | 100.26609 | 27 ft | 2 kts | 312° |
| 2026-04-25 08:22 | 5.29085 | 100.26620 | 27 ft | 0 kts | 311° |
| 2026-04-25 08:22 | 5.29080 | 100.26627 | 27 ft | 1 kts | 278° |
| 2026-04-25 08:23 | 5.29082 | 100.26638 | 27 ft | 0 kts | 227° |
| 2026-04-25 08:23 | 5.29087 | 100.26643 | 27 ft | 1 kts | 219° |
| 2026-04-25 08:23 | 5.29089 | 100.26643 | 27 ft | 0 kts | 221° |
| 2026-04-25 08:26 | 5.29086 | 100.26641 | 27 ft | 1 kts | 220° |
| 2026-04-25 08:27 | 5.29071 | 100.26628 | 26 ft | 4 kts | 221° |
| 2026-04-25 08:27 | 5.29023 | 100.26583 | 27 ft | 14 kts | 222° |
| 2026-04-25 08:27 | 5.28921 | 100.26491 | 27 ft | 20 kts | 222° |
| 2026-04-25 08:27 | 5.28811 | 100.26520 | 24 ft | 19 kts | 131° |
| 2026-04-25 08:28 | 5.28720 | 100.26576 | 23 ft | 12 kts | 166° |
| 2026-04-25 08:28 | 5.28668 | 100.26611 | 22 ft | 0 kts | 127° |
| 2026-04-25 08:28 | 5.28666 | 100.26614 | 22 ft | 1 kts | 127° |
| 2026-04-25 08:28 | 5.28658 | 100.26624 | 22 ft | 2 kts | 127° |
| 2026-04-25 08:29 | 5.28637 | 100.26686 | 22 ft | 16 kts | 84° |
| 2026-04-25 08:29 | 5.28663 | 100.26730 | 22 ft | 1 kts | 43° |
| 2026-04-25 08:29 | 5.28835 | 100.26885 | 22 ft | 69 kts | 42° |
| 2026-04-25 08:29 | 5.29351 | 100.27355 | 22 ft | 129 kts | 40° |
| 2026-04-25 08:30 | 5.30134 | 100.28050 | 185 ft | 161 kts | 41° |
| 2026-04-25 08:30 | 5.30969 | 100.28783 | 787 ft | 158 kts | 40° |
| 2026-04-25 08:30 | 5.31780 | 100.29503 | 1364 ft | 159 kts | 41° |
| 2026-04-25 08:30 | 5.32616 | 100.30257 | 1822 ft | 165 kts | 41° |
| 2026-04-25 08:31 | 5.33505 | 100.31057 | 2097 ft | 179 kts | 41° |
| 2026-04-25 08:31 | 5.34468 | 100.31921 | 2388 ft | 194 kts | 41° |
| 2026-04-25 08:31 | 5.35514 | 100.32857 | 2686 ft | 209 kts | 41° |
| 2026-04-25 08:31 | 5.36681 | 100.33839 | 2921 ft | 230 kts | 30° |
| 2026-04-25 08:32 | 5.38243 | 100.34249 | 3227 ft | 247 kts | 353° |
| 2026-04-25 08:32 | 5.39925 | 100.33717 | 3615 ft | 262 kts | 336° |
| 2026-04-25 08:32 | 5.41627 | 100.32961 | 4240 ft | 269 kts | 336° |
| 2026-04-25 08:32 | 5.43352 | 100.32214 | 5014 ft | 271 kts | 337° |
| 2026-04-25 08:33 | 5.45067 | 100.31499 | 5791 ft | 273 kts | 338° |
| 2026-04-25 08:33 | 5.46839 | 100.30783 | 6594 ft | 275 kts | 338° |
| 2026-04-25 08:33 | 5.48600 | 100.30084 | 7394 ft | 277 kts | 338° |
| 2026-04-25 08:33 | 5.50375 | 100.29388 | 8196 ft | 279 kts | 338° |
| 2026-04-25 08:34 | 5.52196 | 100.28676 | 9001 ft | 281 kts | 337° |
| 2026-04-25 08:34 | 5.53989 | 100.27978 | 9772 ft | 284 kts | 337° |
| 2026-04-25 08:34 | 5.55855 | 100.27254 | 10504 ft | 288 kts | 336° |
| 2026-04-25 08:34 | 5.57769 | 100.26511 | 10920 ft | 305 kts | 336° |
| 2026-04-25 08:35 | 5.59792 | 100.25724 | 11262 ft | 323 kts | 336° |
| 2026-04-25 08:35 | 5.61927 | 100.24895 | 11734 ft | 335 kts | 336° |
| 2026-04-25 08:35 | 5.64120 | 100.24044 | 12459 ft | 339 kts | 336° |
| 2026-04-25 08:35 | 5.66322 | 100.23190 | 13188 ft | 343 kts | 336° |
| 2026-04-25 08:36 | 5.68522 | 100.22336 | 13861 ft | 347 kts | 336° |
| 2026-04-25 08:36 | 5.70849 | 100.21547 | 14538 ft | 353 kts | 341° |
| 2026-04-25 08:36 | 5.73230 | 100.20982 | 15194 ft | 360 kts | 347° |
| 2026-04-25 08:36 | 5.75710 | 100.20617 | 15841 ft | 365 kts | 350° |
| 2026-04-25 08:37 | 5.78264 | 100.20312 | 16482 ft | 370 kts | 350° |
| 2026-04-25 08:37 | 5.80839 | 100.20015 | 17098 ft | 375 kts | 350° |
| 2026-04-25 08:37 | 5.83466 | 100.19710 | 17707 ft | 380 kts | 350° |
| 2026-04-25 08:37 | 5.86097 | 100.19405 | 18280 ft | 385 kts | 350° |
| 2026-04-25 08:38 | 5.88744 | 100.19095 | 18826 ft | 390 kts | 350° |
| 2026-04-25 08:38 | 5.91473 | 100.18774 | 19388 ft | 395 kts | 351° |
| 2026-04-25 08:38 | 5.94207 | 100.18452 | 19939 ft | 399 kts | 351° |
| 2026-04-25 08:38 | 5.96943 | 100.18130 | 20478 ft | 404 kts | 351° |
| 2026-04-25 08:39 | 5.99747 | 100.17799 | 21020 ft | 408 kts | 351° |
| 2026-04-25 08:39 | 6.02578 | 100.17465 | 21557 ft | 412 kts | 351° |
| 2026-04-25 08:39 | 6.05435 | 100.17129 | 22092 ft | 416 kts | 351° |
| 2026-04-25 08:41 | 6.22125 | 100.15169 | 26226 ft | 404 kts | 353° |
| 2026-04-25 08:41 | 6.24941 | 100.14839 | 26796 ft | 405 kts | 353° |
| 2026-04-25 08:41 | 6.27753 | 100.14510 | 27272 ft | 407 kts | 353° |
| 2026-04-25 08:41 | 6.30573 | 100.14179 | 27726 ft | 410 kts | 353° |
| 2026-04-25 08:42 | 6.33382 | 100.13850 | 27964 ft | 412 kts | 353° |
| 2026-04-25 08:42 | 6.36244 | 100.13513 | 27978 ft | 413 kts | 353° |
| 2026-04-25 08:42 | 6.39076 | 100.13178 | 27984 ft | 413 kts | 352° |
| 2026-04-25 08:42 | 6.41856 | 100.12514 | 27977 ft | 413 kts | 339° |
| 2026-04-25 08:43 | 6.44378 | 100.11150 | 27983 ft | 413 kts | 323° |
| 2026-04-25 08:43 | 6.46492 | 100.09203 | 27995 ft | 413 kts | 313° |
| 2026-04-25 08:43 | 6.48426 | 100.07072 | 27992 ft | 413 kts | 311° |
| 2026-04-25 08:43 | 6.50343 | 100.04906 | 27991 ft | 413 kts | 311° |
| 2026-04-25 08:44 | 6.52257 | 100.02750 | 27990 ft | 413 kts | 312° |
| 2026-04-25 08:44 | 6.54168 | 100.00613 | 27990 ft | 413 kts | 312° |
| 2026-04-25 08:44 | 6.56092 | 99.98472 | 27990 ft | 413 kts | 312° |
| 2026-04-25 08:44 | 6.58008 | 99.96346 | 27990 ft | 413 kts | 312° |
| 2026-04-25 08:45 | 6.59949 | 99.94199 | 27990 ft | 413 kts | 312° |
| 2026-04-25 08:45 | 6.61884 | 99.92058 | 27990 ft | 413 kts | 312° |
| 2026-04-25 08:45 | 6.63807 | 99.89933 | 27990 ft | 413 kts | 312° |
| 2026-04-25 08:45 | 6.65738 | 99.87799 | 27991 ft | 413 kts | 312° |
| 2026-04-25 08:46 | 6.67673 | 99.85664 | 27994 ft | 413 kts | 312° |
| 2026-04-25 08:46 | 6.69580 | 99.83561 | 27991 ft | 413 kts | 312° |
| 2026-04-25 08:46 | 6.71510 | 99.81431 | 27990 ft | 413 kts | 312° |
| 2026-04-25 08:46 | 6.73445 | 99.79294 | 27990 ft | 413 kts | 312° |
| 2026-04-25 08:47 | 6.75390 | 99.77145 | 27990 ft | 413 kts | 312° |
| 2026-04-25 08:47 | 6.77303 | 99.75030 | 27990 ft | 413 kts | 312° |
| 2026-04-25 08:47 | 6.79252 | 99.72876 | 27990 ft | 413 kts | 312° |
| 2026-04-25 08:47 | 6.81171 | 99.70757 | 27990 ft | 413 kts | 312° |
| 2026-04-25 08:48 | 6.83117 | 99.68605 | 27990 ft | 413 kts | 312° |
| 2026-04-25 08:48 | 6.85031 | 99.66490 | 27990 ft | 413 kts | 312° |
| 2026-04-25 08:48 | 6.86973 | 99.64344 | 27990 ft | 413 kts | 312° |
| 2026-04-25 08:48 | 6.88911 | 99.62202 | 27990 ft | 413 kts | 312° |
| 2026-04-25 08:49 | 6.90826 | 99.60085 | 27990 ft | 413 kts | 312° |
| 2026-04-25 08:49 | 6.92759 | 99.57948 | 27990 ft | 413 kts | 312° |
| 2026-04-25 08:49 | 6.94683 | 99.55821 | 27990 ft | 413 kts | 312° |
| 2026-04-25 08:49 | 6.96612 | 99.53688 | 27990 ft | 413 kts | 312° |
| 2026-04-25 08:50 | 6.98540 | 99.51555 | 27990 ft | 413 kts | 312° |
| 2026-04-25 08:50 | 7.00465 | 99.49426 | 27989 ft | 413 kts | 313° |
| 2026-04-25 08:50 | 7.02422 | 99.47313 | 27989 ft | 413 kts | 313° |
| 2026-04-25 08:50 | 7.04395 | 99.45209 | 27827 ft | 415 kts | 313° |
| 2026-04-25 08:51 | 7.06398 | 99.43079 | 27101 ft | 421 kts | 313° |
| 2026-04-25 08:51 | 7.08413 | 99.40935 | 26256 ft | 425 kts | 313° |
| 2026-04-25 08:51 | 7.10446 | 99.38770 | 25506 ft | 426 kts | 313° |
| 2026-04-25 08:51 | 7.12496 | 99.36599 | 24793 ft | 426 kts | 314° |
| 2026-04-25 08:52 | 7.14523 | 99.34454 | 24092 ft | 426 kts | 313° |
| 2026-04-25 08:52 | 7.16532 | 99.32310 | 23528 ft | 422 kts | 313° |
| 2026-04-25 08:52 | 7.18543 | 99.30157 | 23042 ft | 416 kts | 313° |
| 2026-04-25 08:52 | 7.20520 | 99.28043 | 22558 ft | 411 kts | 313° |
| 2026-04-25 08:53 | 7.22468 | 99.25959 | 22078 ft | 407 kts | 313° |
| 2026-04-25 08:53 | 7.24404 | 99.23890 | 21596 ft | 402 kts | 313° |
| 2026-04-25 08:53 | 7.26306 | 99.21858 | 21121 ft | 398 kts | 313° |
| 2026-04-25 08:53 | 7.28180 | 99.19857 | 20650 ft | 394 kts | 313° |
| 2026-04-25 08:54 | 7.30062 | 99.17847 | 20176 ft | 390 kts | 313° |
| 2026-04-25 08:54 | 7.31916 | 99.15868 | 19707 ft | 386 kts | 313° |
| 2026-04-25 08:54 | 7.33720 | 99.13941 | 19248 ft | 383 kts | 313° |
| 2026-04-25 08:54 | 7.35566 | 99.11970 | 18775 ft | 380 kts | 313° |
| 2026-04-25 08:55 | 7.37348 | 99.10067 | 18320 ft | 377 kts | 313° |
| 2026-04-25 08:55 | 7.39145 | 99.08147 | 17857 ft | 373 kts | 313° |
| 2026-04-25 08:55 | 7.40912 | 99.06261 | 17402 ft | 370 kts | 313° |
| 2026-04-25 08:55 | 7.42677 | 99.04375 | 16945 ft | 367 kts | 313° |
| 2026-04-25 08:56 | 7.44415 | 99.02518 | 16496 ft | 364 kts | 313° |
| 2026-04-25 08:56 | 7.46143 | 99.00672 | 16045 ft | 361 kts | 313° |
| 2026-04-25 08:56 | 7.47856 | 98.98842 | 15599 ft | 359 kts | 313° |
| 2026-04-25 08:56 | 7.49548 | 98.97033 | 15155 ft | 356 kts | 313° |
| 2026-04-25 08:57 | 7.51230 | 98.95235 | 14714 ft | 353 kts | 313° |
| 2026-04-25 08:57 | 7.52922 | 98.93426 | 14269 ft | 350 kts | 313° |
| 2026-04-25 08:57 | 7.54574 | 98.91660 | 13832 ft | 347 kts | 313° |
| 2026-04-25 08:57 | 7.56216 | 98.89904 | 13399 ft | 345 kts | 313° |
| 2026-04-25 08:58 | 7.57859 | 98.88148 | 12965 ft | 342 kts | 313° |
| 2026-04-25 08:58 | 7.59486 | 98.86407 | 12534 ft | 340 kts | 313° |
| 2026-04-25 08:58 | 7.61090 | 98.84692 | 12107 ft | 337 kts | 313° |
| 2026-04-25 08:58 | 7.62683 | 98.82989 | 11683 ft | 335 kts | 313° |
| 2026-04-25 08:59 | 7.64279 | 98.81282 | 11256 ft | 333 kts | 313° |
| 2026-04-25 08:59 | 7.65869 | 98.79582 | 10831 ft | 330 kts | 313° |
| 2026-04-25 08:59 | 7.67426 | 98.77915 | 10440 ft | 327 kts | 313° |
| 2026-04-25 08:59 | 7.68947 | 98.76287 | 10345 ft | 306 kts | 313° |
| 2026-04-25 09:00 | 7.70345 | 98.74792 | 10271 ft | 287 kts | 313° |
| 2026-04-25 09:00 | 7.71689 | 98.73354 | 10202 ft | 277 kts | 313° |
| 2026-04-25 09:00 | 7.73001 | 98.71941 | 9977 ft | 276 kts | 313° |
| 2026-04-25 09:00 | 7.74293 | 98.70546 | 9651 ft | 275 kts | 313° |
| 2026-04-25 09:01 | 7.75601 | 98.69132 | 9333 ft | 273 kts | 313° |
| 2026-04-25 09:01 | 7.76955 | 98.67799 | 9019 ft | 272 kts | 319° |
| 2026-04-25 09:01 | 7.78445 | 98.66631 | 8710 ft | 270 kts | 326° |
| 2026-04-25 09:01 | 7.80007 | 98.65585 | 8405 ft | 268 kts | 327° |
| 2026-04-25 09:02 | 7.81558 | 98.64574 | 8105 ft | 267 kts | 327° |
| 2026-04-25 09:02 | 7.83104 | 98.63567 | 7806 ft | 265 kts | 327° |
| 2026-04-25 09:02 | 7.84664 | 98.62545 | 7503 ft | 263 kts | 327° |
| 2026-04-25 09:02 | 7.86183 | 98.61547 | 7208 ft | 262 kts | 327° |
| 2026-04-25 09:03 | 7.87708 | 98.60542 | 6911 ft | 260 kts | 327° |
| 2026-04-25 09:03 | 7.89207 | 98.59553 | 6619 ft | 259 kts | 327° |
| 2026-04-25 09:03 | 7.90708 | 98.58569 | 6555 ft | 255 kts | 329° |
| 2026-04-25 09:03 | 7.92317 | 98.57855 | 6487 ft | 255 kts | 345° |
| 2026-04-25 09:04 | 7.94050 | 98.57561 | 6187 ft | 254 kts | 354° |
| 2026-04-25 09:04 | 7.95797 | 98.57410 | 5906 ft | 253 kts | 355° |
| 2026-04-25 09:04 | 7.97547 | 98.57272 | 5628 ft | 251 kts | 355° |
| 2026-04-25 09:04 | 7.99278 | 98.57127 | 5355 ft | 249 kts | 355° |
| 2026-04-25 09:05 | 8.01006 | 98.56973 | 5174 ft | 243 kts | 355° |
| 2026-04-25 09:05 | 8.02635 | 98.56824 | 5159 ft | 228 kts | 355° |
| 2026-04-25 09:05 | 8.04186 | 98.56679 | 5074 ft | 226 kts | 355° |
| 2026-04-25 09:05 | 8.05770 | 98.56531 | 4752 ft | 226 kts | 355° |
| 2026-04-25 09:06 | 8.07334 | 98.56385 | 4456 ft | 226 kts | 355° |
| 2026-04-25 09:06 | 8.08885 | 98.56239 | 4168 ft | 225 kts | 355° |
| 2026-04-25 09:06 | 8.10442 | 98.56092 | 3881 ft | 224 kts | 355° |
| 2026-04-25 09:06 | 8.11974 | 98.55823 | 3581 ft | 224 kts | 335° |
| 2026-04-25 09:07 | 8.13074 | 98.54810 | 3313 ft | 220 kts | 294° |
| 2026-04-25 09:07 | 8.13296 | 98.53326 | 3185 ft | 215 kts | 262° |
| 2026-04-25 09:07 | 8.13017 | 98.51822 | 3170 ft | 217 kts | 258° |
| 2026-04-25 09:07 | 8.12754 | 98.50346 | 3004 ft | 214 kts | 262° |
| 2026-04-25 09:08 | 8.12590 | 98.48867 | 2826 ft | 208 kts | 265° |
| 2026-04-25 09:08 | 8.12481 | 98.47409 | 2821 ft | 207 kts | 266° |
| 2026-04-25 09:08 | 8.12389 | 98.46004 | 2762 ft | 196 kts | 266° |
| 2026-04-25 09:08 | 8.12302 | 98.44666 | 2582 ft | 187 kts | 266° |
| 2026-04-25 09:09 | 8.12214 | 98.43379 | 2285 ft | 179 kts | 266° |
| 2026-04-25 09:09 | 8.12131 | 98.42175 | 2012 ft | 164 kts | 266° |
| 2026-04-25 09:09 | 8.12056 | 98.41080 | 1753 ft | 151 kts | 266° |
| 2026-04-25 09:09 | 8.11986 | 98.40068 | 1521 ft | 138 kts | 266° |
| 2026-04-25 09:10 | 8.11920 | 98.39121 | 1337 ft | 135 kts | 266° |
| 2026-04-25 09:10 | 8.11854 | 98.38173 | 1163 ft | 134 kts | 266° |
| 2026-04-25 09:10 | 8.11789 | 98.37238 | 984 ft | 134 kts | 266° |
| 2026-04-25 09:10 | 8.11747 | 98.36292 | 759 ft | 134 kts | 268° |
| 2026-04-25 09:11 | 8.11586 | 98.34428 | 415 ft | 133 kts | 264° |
| 2026-04-25 09:11 | 8.11502 | 98.33506 | 206 ft | 132 kts | 264° |
| 2026-04-25 09:11 | 8.11403 | 98.32590 | 97 ft | 128 kts | 263° |
| 2026-04-25 09:12 | 8.11330 | 98.31832 | 74 ft | 84 kts | 265° |
| 2026-04-25 09:12 | 8.11292 | 98.31414 | 51 ft | 34 kts | 263° |
| 2026-04-25 09:12 | 8.11254 | 98.31186 | 42 ft | 29 kts | 249° |
| 2026-04-25 09:12 | 8.11183 | 98.31079 | 41 ft | 15 kts | 233° |
| 2026-04-25 09:13 | 8.11122 | 98.30994 | 41 ft | 14 kts | 238° |
| 2026-04-25 09:13 | 8.11081 | 98.30900 | 40 ft | 14 kts | 262° |
| 2026-04-25 09:13 | 8.11069 | 98.30789 | 37 ft | 16 kts | 264° |
| 2026-04-25 09:13 | 8.11057 | 98.30672 | 37 ft | 16 kts | 264° |
| 2026-04-25 09:14 | 8.11046 | 98.30557 | 35 ft | 16 kts | 264° |
| 2026-04-25 09:14 | 8.10986 | 98.30477 | 34 ft | 15 kts | 189° |
| 2026-04-25 09:14 | 8.10877 | 98.30451 | 34 ft | 16 kts | 194° |
| 2026-04-25 09:14 | 8.10773 | 98.30423 | 33 ft | 11 kts | 195° |
| 2026-04-25 09:15 | 8.10723 | 98.30455 | 34 ft | 9 kts | 91° |
| 2026-04-25 09:15 | 8.10714 | 98.30499 | 35 ft | 5 kts | 104° |
| 2026-04-25 09:15 | 8.10713 | 98.30505 | 35 ft | 0 kts | 104° |